Time;durP1;ratioP1;P1;durP2;ratioP2;P2;SDS_P1;SDS_P2;PMS_P1;PMS_P2;Temp;Humidity;BMP_temperature;BMP_pressure;BME280_temperature;BME280_humidity;BME280_pressure;Samples;Min_cycle;Max_cycle;Signal;HPM_P1;HPM_P2
2023/01/23 00:00:35;;;;;;;18.57;13.40;;;1.10;99.90;;;;;;5021517;28;20168;-72
2023/01/23 00:03:02;;;;;;;18.80;13.32;;;1.10;99.90;;;;;;5016723;28;20235;-72
2023/01/23 00:05:27;;;;;;;17.80;12.57;;;1.10;99.90;;;;;;5014259;28;20189;-71
2023/01/23 00:07:53;;;;;;;17.27;12.90;;;1.10;99.90;;;;;;5010786;28;20176;-72
2023/01/23 00:10:18;;;;;;;18.60;13.43;;;1.10;99.90;;;;;;5019587;28;20238;-73
2023/01/23 00:12:45;;;;;;;18.40;12.37;;;1.10;99.90;;;;;;5022935;28;20181;-73
2023/01/23 00:15:12;;;;;;;15.48;12.52;;;1.10;99.90;;;;;;5029548;28;20245;-72
2023/01/23 00:17:40;;;;;;;15.60;12.63;;;1.20;99.90;;;;;;5018031;28;20166;-72
2023/01/23 00:20:07;;;;;;;18.07;13.37;;;1.20;99.90;;;;;;5026780;28;20210;-72
2023/01/23 00:22:33;;;;;;;17.35;13.57;;;1.10;99.90;;;;;;5016429;28;20660;-72
2023/01/23 00:24:59;;;;;;;20.70;14.07;;;1.10;99.90;;;;;;5012426;28;20294;-72
2023/01/23 00:27:24;;;;;;;16.95;12.20;;;1.10;99.90;;;;;;5017333;28;20169;-71
2023/01/23 00:29:52;;;;;;;16.95;13.13;;;1.10;99.90;;;;;;5024154;28;20282;-72
2023/01/23 00:32:17;;;;;;;16.90;12.60;;;1.20;99.90;;;;;;5018328;28;20177;-71
2023/01/23 00:34:44;;;;;;;17.57;13.03;;;1.10;99.90;;;;;;5019895;28;20224;-70
2023/01/23 00:37:10;;;;;;;16.93;11.93;;;1.00;99.90;;;;;;5026339;28;20185;-71
2023/01/23 00:39:35;;;;;;;15.80;11.35;;;0.90;99.90;;;;;;5021877;28;20196;-71
2023/01/23 00:42:01;;;;;;;16.55;12.32;;;1.00;99.90;;;;;;5021874;28;20302;-71
2023/01/23 00:44:26;;;;;;;16.08;11.93;;;1.10;99.90;;;;;;5021270;28;20615;-71
2023/01/23 00:46:52;;;;;;;14.98;10.43;;;1.10;99.90;;;;;;5014130;28;20598;-71
2023/01/23 00:49:18;;;;;;;13.27;10.77;;;1.10;99.90;;;;;;5020981;28;20211;-71
2023/01/23 00:51:45;;;;;;;14.27;10.63;;;1.10;99.90;;;;;;5031756;28;20181;-71
2023/01/23 00:54:10;;;;;;;11.32;10.05;;;1.10;99.90;;;;;;5022149;28;20201;-72
2023/01/23 00:56:36;;;;;;;12.20;9.73;;;1.00;99.90;;;;;;5015228;28;20579;-72
2023/01/23 00:59:02;;;;;;;11.57;10.00;;;1.00;99.90;;;;;;5018994;28;20196;-71
2023/01/23 01:01:30;;;;;;;14.87;10.03;;;1.00;99.90;;;;;;5026814;28;20180;-71
2023/01/23 01:03:56;;;;;;;12.73;9.90;;;1.00;99.90;;;;;;5031918;28;20633;-71
2023/01/23 01:06:21;;;;;;;12.27;9.60;;;1.00;99.90;;;;;;5020829;28;20193;-72
2023/01/23 01:08:47;;;;;;;14.00;10.47;;;1.10;99.90;;;;;;5019083;28;20193;-72
2023/01/23 01:11:13;;;;;;;12.07;10.50;;;1.10;99.90;;;;;;5021617;28;20208;-72
2023/01/23 01:13:38;;;;;;;15.23;10.30;;;1.10;99.90;;;;;;5020826;28;20711;-72
2023/01/23 01:16:04;;;;;;;13.87;10.47;;;1.20;99.90;;;;;;5024013;28;20177;-73
2023/01/23 01:18:30;;;;;;;11.20;9.87;;;1.20;99.90;;;;;;5024884;28;20180;-73
2023/01/23 01:20:57;;;;;;;13.70;10.53;;;1.10;99.90;;;;;;5023592;28;20177;-73
2023/01/23 01:23:23;;;;;;;11.53;10.07;;;1.00;99.90;;;;;;5020656;28;20213;-72
2023/01/23 01:25:49;;;;;;;12.50;10.73;;;1.10;99.90;;;;;;5025827;28;20203;-71
2023/01/23 01:28:14;;;;;;;12.80;10.30;;;1.10;99.90;;;;;;5018713;28;20371;-72
2023/01/23 01:30:40;;;;;;;14.63;10.70;;;1.10;99.90;;;;;;5019501;28;20543;-72
2023/01/23 01:33:06;;;;;;;15.10;11.40;;;0.90;99.90;;;;;;5023806;28;20243;-72
2023/01/23 01:35:32;;;;;;;12.63;10.27;;;0.90;99.90;;;;;;5020510;28;20174;-72
2023/01/23 01:37:58;;;;;;;13.23;10.83;;;0.80;99.90;;;;;;5017235;28;20181;-72
2023/01/23 01:40:27;;;;;;;11.43;9.90;;;0.80;99.90;;;;;;5017711;28;20586;-72
2023/01/23 01:43:02;;;;;;;12.70;10.03;;;0.90;99.90;;;;;;5026887;28;20590;-72
2023/01/23 01:45:58;;;;;;;15.47;10.47;;;1.00;99.90;;;;;;5013325;28;20681;-72
2023/01/23 01:48:29;;;;;;;15.07;10.53;;;0.90;99.90;;;;;;5018634;28;20205;-71
2023/01/23 01:50:56;;;;;;;13.43;10.33;;;0.90;99.90;;;;;;5027338;28;20177;-71
2023/01/23 01:53:24;;;;;;;15.10;10.60;;;0.90;99.90;;;;;;5027782;28;20575;-71
2023/01/23 01:55:50;;;;;;;14.27;10.33;;;0.90;99.90;;;;;;5018325;28;20236;-72
2023/01/23 01:58:16;;;;;;;15.03;10.87;;;0.90;99.90;;;;;;5021228;28;20177;-71
2023/01/23 02:00:42;;;;;;;14.83;11.03;;;0.80;99.90;;;;;;5024783;28;20183;-71
2023/01/23 02:03:08;;;;;;;16.30;12.13;;;0.80;99.90;;;;;;5021589;28;20176;-71
2023/01/23 02:05:38;;;;;;;16.37;11.43;;;0.80;99.90;;;;;;5012481;28;20197;-72
2023/01/23 02:08:30;;;;;;;15.07;11.43;;;0.80;99.90;;;;;;5024085;28;20185;-72
2023/01/23 02:10:56;;;;;;;15.23;10.90;;;0.70;99.90;;;;;;5013637;28;20614;-71
2023/01/23 02:13:29;;;;;;;13.37;10.83;;;0.60;99.90;;;;;;5020824;28;20232;-71
2023/01/23 02:15:56;;;;;;;14.10;10.77;;;0.40;99.90;;;;;;5015957;28;20186;-71
2023/01/23 02:18:22;;;;;;;16.13;11.17;;;0.40;99.90;;;;;;5022163;28;20737;-71
2023/01/23 02:20:53;;;;;;;15.73;11.40;;;0.30;99.90;;;;;;5016603;28;20301;-71
2023/01/23 02:23:40;;;;;;;15.03;10.67;;;0.30;99.90;;;;;;5024240;28;20192;-71
2023/01/23 02:26:11;;;;;;;15.13;10.87;;;0.40;99.90;;;;;;5017044;28;20517;-71
2023/01/23 02:28:45;;;;;;;13.10;10.43;;;0.40;99.90;;;;;;5012463;28;20712;-72
2023/01/23 02:31:12;;;;;;;17.93;12.73;;;0.30;99.90;;;;;;5012568;28;20267;-72
2023/01/23 02:33:37;;;;;;;16.60;12.50;;;0.30;99.90;;;;;;5025684;28;20248;-72
2023/01/23 02:36:04;;;;;;;20.13;12.00;;;0.30;99.90;;;;;;5015525;28;20228;-72
2023/01/23 02:38:36;;;;;;;17.80;13.07;;;0.30;99.90;;;;;;5021036;28;20225;-72
2023/01/23 02:41:04;;;;;;;20.17;13.13;;;0.40;99.90;;;;;;5018571;28;20272;-72
2023/01/23 02:43:34;;;;;;;19.70;13.47;;;0.30;99.90;;;;;;5021140;28;20209;-72
2023/01/23 02:46:05;;;;;;;17.70;13.53;;;0.30;99.90;;;;;;5020609;28;20196;-72
2023/01/23 02:48:30;;;;;;;16.87;12.33;;;0.30;99.90;;;;;;5023236;28;20252;-72
2023/01/23 02:50:56;;;;;;;19.00;13.10;;;0.30;99.90;;;;;;5024479;28;20177;-72
2023/01/23 02:53:22;;;;;;;19.70;14.10;;;0.30;99.90;;;;;;5016770;28;20193;-72
2023/01/23 02:55:47;;;;;;;20.87;13.93;;;0.20;99.90;;;;;;5019708;28;20179;-72
2023/01/23 03:00:57;;;;;;;19.33;13.70;;;0.20;99.90;;;;;;5019259;28;20206;-72
2023/01/23 03:03:23;;;;;;;18.70;13.27;;;0.20;99.90;;;;;;5019278;28;20197;-72
2023/01/23 03:05:49;;;;;;;19.73;13.23;;;0.20;99.90;;;;;;5018107;28;20197;-72
2023/01/23 03:08:15;;;;;;;18.13;13.33;;;0.10;99.90;;;;;;5014207;28;20188;-72
2023/01/23 03:10:41;;;;;;;19.47;13.70;;;0.10;99.90;;;;;;5023846;28;20259;-72
2023/01/23 03:13:09;;;;;;;20.90;13.77;;;0.00;99.90;;;;;;5011532;28;20191;-72
2023/01/23 03:15:37;;;;;;;17.43;12.97;;;-0.10;99.90;;;;;;5016079;28;20703;-72
2023/01/23 03:18:03;;;;;;;19.43;13.90;;;-0.10;99.90;;;;;;5017222;28;20553;-72
2023/01/23 03:20:29;;;;;;;16.73;12.77;;;-0.20;99.90;;;;;;5009057;28;20189;-71
2023/01/23 03:22:55;;;;;;;17.13;12.33;;;-0.20;99.90;;;;;;5019974;28;20638;-71
2023/01/23 03:25:21;;;;;;;19.33;13.97;;;-0.30;99.90;;;;;;5019783;28;20695;-71
2023/01/23 03:27:47;;;;;;;20.30;13.83;;;-0.30;99.90;;;;;;5015461;28;20196;-71
2023/01/23 03:30:15;;;;;;;20.37;13.73;;;-0.20;99.90;;;;;;5014139;28;20205;-71
2023/01/23 03:32:45;;;;;;;21.37;14.20;;;-0.30;99.90;;;;;;5023010;28;20169;-71
2023/01/23 03:35:13;;;;;;;19.20;13.20;;;-0.30;99.90;;;;;;5029170;28;20205;-71
2023/01/23 03:37:39;;;;;;;22.40;14.93;;;-0.30;99.90;;;;;;5023535;28;20177;-73
2023/01/23 03:43:09;;;;;;;19.73;13.70;;;-0.40;99.90;;;;;;5035502;28;20192;-71
2023/01/23 03:45:36;;;;;;;20.53;14.67;;;-0.40;99.90;;;;;;5039055;28;20183;-71
2023/01/23 03:48:01;;;;;;;20.63;14.57;;;-0.40;99.90;;;;;;5027667;28;20208;-72
2023/01/23 03:50:27;;;;;;;19.77;14.53;;;-0.40;99.90;;;;;;5022161;28;20572;-71
2023/01/23 03:52:53;;;;;;;20.43;14.93;;;-0.30;99.90;;;;;;5019923;28;20191;-71
2023/01/23 03:55:19;;;;;;;18.57;13.57;;;-0.30;99.90;;;;;;5015354;28;20184;-71
2023/01/23 03:57:44;;;;;;;20.60;13.83;;;-0.30;99.90;;;;;;5019815;28;20183;-71
2023/01/23 04:00:12;;;;;;;18.03;14.00;;;-0.30;99.90;;;;;;5021432;28;20230;-71
2023/01/23 04:02:38;;;;;;;19.37;13.10;;;-0.30;99.90;;;;;;5015219;28;20177;-70
2023/01/23 04:05:04;;;;;;;18.87;13.73;;;-0.40;99.90;;;;;;5009040;28;20244;-70
2023/01/23 04:07:29;;;;;;;17.00;12.40;;;-0.40;99.90;;;;;;5009616;28;20576;-71
2023/01/23 04:09:55;;;;;;;19.57;12.87;;;-0.40;99.90;;;;;;5014412;28;20205;-71
2023/01/23 04:12:20;;;;;;;18.77;13.37;;;-0.30;99.90;;;;;;5016296;28;20683;-71
2023/01/23 04:14:46;;;;;;;20.13;13.40;;;-0.30;99.90;;;;;;5009730;28;20208;-71
2023/01/23 04:17:11;;;;;;;21.73;14.70;;;-0.40;99.90;;;;;;5014727;28;20181;-70
2023/01/23 04:19:37;;;;;;;20.60;14.23;;;-0.40;99.90;;;;;;5009534;28;20269;-70
2023/01/23 04:22:03;;;;;;;18.47;13.80;;;-0.40;99.90;;;;;;5010132;28;20640;-71
2023/01/23 04:24:29;;;;;;;22.00;14.43;;;-0.40;99.90;;;;;;5005169;28;20204;-72
2023/01/23 04:26:55;;;;;;;22.83;13.83;;;-0.50;99.90;;;;;;5006228;28;20208;-71
2023/01/23 04:29:20;;;;;;;23.23;15.37;;;-0.50;99.90;;;;;;5007036;28;20287;-71
2023/01/23 04:31:46;;;;;;;21.27;14.90;;;-0.60;99.90;;;;;;5006736;28;20205;-71
2023/01/23 04:34:11;;;;;;;22.23;15.37;;;-0.70;99.90;;;;;;5011208;28;20726;-71
2023/01/23 04:36:37;;;;;;;20.23;13.30;;;-0.70;99.90;;;;;;5008902;28;20600;-70
2023/01/23 04:39:03;;;;;;;20.63;14.67;;;-0.80;99.90;;;;;;5011666;28;20619;-71
2023/01/23 04:41:30;;;;;;;21.93;14.00;;;-0.90;99.90;;;;;;5010236;28;20558;-70
2023/01/23 04:43:56;;;;;;;20.20;13.83;;;-0.90;99.90;;;;;;5011369;28;20213;-70
2023/01/23 04:46:22;;;;;;;17.40;12.83;;;-0.90;99.90;;;;;;5009748;28;20189;-71
2023/01/23 04:48:47;;;;;;;22.10;14.97;;;-1.00;99.90;;;;;;5011516;28;20707;-71
2023/01/23 04:51:13;;;;;;;19.87;14.37;;;-1.00;99.90;;;;;;5009840;28;20185;-71
2023/01/23 04:53:38;;;;;;;22.07;13.97;;;-1.10;99.90;;;;;;5011920;28;20240;-71
2023/01/23 04:56:05;;;;;;;20.33;14.73;;;-1.10;99.90;;;;;;5016658;28;20667;-71
2023/01/23 04:58:30;;;;;;;21.77;14.60;;;-1.10;99.90;;;;;;5011413;28;20177;-71
2023/01/23 05:01:06;;;;;;;19.20;14.13;;;-1.10;99.90;;;;;;5014729;28;20181;-71
2023/01/23 05:03:33;;;;;;;23.37;13.53;;;-1.10;99.90;;;;;;5011367;28;20201;-71
2023/01/23 05:05:59;;;;;;;27.50;14.60;;;-1.20;99.90;;;;;;5020231;28;21703;-71
2023/01/23 05:08:25;;;;;;;19.60;12.67;;;-1.20;99.90;;;;;;5022588;28;20308;-71
2023/01/23 05:10:50;;;;;;;20.77;14.20;;;-1.20;99.90;;;;;;5015793;28;20201;-71
2023/01/23 05:13:16;;;;;;;21.27;13.37;;;-1.10;99.90;;;;;;5014256;28;20562;-70
2023/01/23 05:15:41;;;;;;;19.90;13.47;;;-1.10;99.90;;;;;;5015881;28;20177;-71
2023/01/23 05:18:07;;;;;;;22.63;14.67;;;-1.20;99.90;;;;;;5015481;28;20184;-69
2023/01/23 05:20:32;;;;;;;22.87;13.93;;;-1.10;99.90;;;;;;5011456;28;20193;-69
2023/01/23 05:22:58;;;;;;;20.77;14.93;;;-1.20;99.90;;;;;;5016916;28;20192;-70
2023/01/23 05:25:27;;;;;;;20.50;14.13;;;-1.20;99.90;;;;;;5015827;28;20189;-70
2023/01/23 05:27:53;;;;;;;19.83;13.20;;;-1.20;99.90;;;;;;5014993;28;20187;-69
2023/01/23 05:30:20;;;;;;;24.53;14.97;;;-1.30;99.90;;;;;;5013858;28;20388;-70
2023/01/23 05:32:46;;;;;;;19.17;13.20;;;-1.30;99.90;;;;;;5022115;28;20519;-70
2023/01/23 05:35:13;;;;;;;21.97;14.90;;;-1.40;99.90;;;;;;5022414;28;20655;-71
2023/01/23 05:37:38;;;;;;;17.43;12.03;;;-1.40;99.90;;;;;;5016776;28;20185;-72
2023/01/23 05:40:07;;;;;;;21.23;13.10;;;-1.40;99.90;;;;;;5021872;28;20233;-71
2023/01/23 05:42:33;;;;;;;18.57;12.80;;;-1.40;99.90;;;;;;5020326;28;20181;-71
2023/01/23 05:44:59;;;;;;;21.50;12.60;;;-1.40;99.90;;;;;;5025559;28;20207;-71
2023/01/23 05:47:25;;;;;;;21.57;14.67;;;-1.40;99.90;;;;;;5009648;28;20178;-71
2023/01/23 05:49:50;;;;;;;22.47;14.87;;;-1.40;99.90;;;;;;5022575;28;20279;-71
2023/01/23 05:52:16;;;;;;;23.50;15.50;;;-1.40;99.90;;;;;;5018114;28;20165;-70
2023/01/23 05:54:41;;;;;;;19.07;13.77;;;-1.30;99.90;;;;;;5024685;28;20253;-70
2023/01/23 05:57:08;;;;;;;19.77;14.13;;;-1.30;99.90;;;;;;5014432;28;20170;-71
2023/01/23 05:59:34;;;;;;;19.07;13.13;;;-1.30;99.90;;;;;;5012288;28;20180;-70
2023/01/23 06:01:59;;;;;;;19.43;14.70;;;-1.20;99.90;;;;;;5023106;28;20779;-71
2023/01/23 06:04:25;;;;;;;21.47;14.53;;;-1.10;99.90;;;;;;5003691;28;20196;-71
2023/01/23 06:06:51;;;;;;;20.87;14.63;;;-1.10;99.90;;;;;;5009522;28;20452;-70
2023/01/23 06:09:16;;;;;;;24.77;15.67;;;-1.00;99.90;;;;;;5012422;28;20254;-70
2023/01/23 06:11:42;;;;;;;21.33;15.07;;;-1.00;99.90;;;;;;5013523;28;20540;-70
2023/01/23 06:14:07;;;;;;;21.87;16.23;;;-0.90;99.90;;;;;;5019941;28;20203;-71
2023/01/23 06:16:33;;;;;;;23.97;15.60;;;-0.80;99.90;;;;;;5016244;28;20187;-76
2023/01/23 06:18:58;;;;;;;24.37;16.43;;;-0.70;99.90;;;;;;5023853;28;20637;-76
2023/01/23 06:21:24;;;;;;;23.93;16.93;;;-0.60;99.90;;;;;;5018065;28;20181;-73
2023/01/23 06:23:49;;;;;;;24.67;15.93;;;-0.60;99.90;;;;;;5015521;28;20211;-74
2023/01/23 06:26:15;;;;;;;23.07;16.67;;;-0.60;99.90;;;;;;5015285;28;20208;-75
2023/01/23 06:28:41;;;;;;;21.33;15.17;;;-0.50;99.90;;;;;;5015328;28;20201;-75
2023/01/23 06:31:09;;;;;;;21.47;14.47;;;-0.40;99.90;;;;;;5019792;28;20177;-73
2023/01/23 06:33:35;;;;;;;23.20;16.13;;;-0.20;99.90;;;;;;5017687;28;20238;-73
2023/01/23 06:36:03;;;;;;;23.23;15.23;;;-0.20;99.90;;;;;;5012768;28;20181;-72
2023/01/23 06:38:29;;;;;;;22.20;14.87;;;0.00;99.90;;;;;;5011100;28;20548;-73
2023/01/23 06:40:55;;;;;;;23.17;15.63;;;0.00;99.90;;;;;;5012710;28;20188;-72
2023/01/23 06:43:21;;;;;;;22.43;14.83;;;0.10;99.90;;;;;;5014004;28;20282;-72
2023/01/23 06:45:47;;;;;;;22.30;15.70;;;0.10;99.90;;;;;;5008769;28;20186;-72
2023/01/23 06:48:13;;;;;;;19.83;15.10;;;0.10;99.90;;;;;;5010309;28;20659;-72
2023/01/23 06:50:40;;;;;;;24.23;16.40;;;0.20;99.90;;;;;;5012887;28;20212;-74
2023/01/23 06:53:06;;;;;;;22.53;14.93;;;0.30;99.90;;;;;;5007822;28;20268;-72
2023/01/23 06:55:32;;;;;;;20.67;15.10;;;0.30;99.90;;;;;;5006802;28;20180;-71
2023/01/23 06:57:58;;;;;;;23.13;15.27;;;0.40;99.90;;;;;;5011810;28;20181;-71
2023/01/23 07:00:25;;;;;;;23.17;15.73;;;0.30;99.90;;;;;;5008827;28;20173;-72
2023/01/23 07:02:51;;;;;;;21.13;14.47;;;0.20;99.90;;;;;;5005534;28;20573;-70
2023/01/23 07:05:18;;;;;;;22.43;15.43;;;0.10;99.90;;;;;;5015112;28;20599;-74
2023/01/23 07:07:44;;;;;;;21.23;15.77;;;0.10;99.90;;;;;;5016062;28;20188;-72
2023/01/23 07:10:10;;;;;;;19.73;14.27;;;0.00;99.90;;;;;;5012654;28;20215;-73
2023/01/23 07:12:36;;;;;;;21.53;15.20;;;0.00;99.90;;;;;;5010478;28;20177;-71
2023/01/23 07:15:02;;;;;;;22.13;15.10;;;-0.10;99.90;;;;;;5011309;28;20251;-71
2023/01/23 07:17:27;;;;;;;23.63;15.87;;;0.00;99.90;;;;;;5006584;28;20204;-71
2023/01/23 07:19:53;;;;;;;20.67;14.30;;;-0.10;99.90;;;;;;5015949;28;20663;-72
2023/01/23 07:22:20;;;;;;;24.00;15.67;;;-0.10;99.90;;;;;;5019659;28;20211;-71
2023/01/23 07:24:46;;;;;;;22.10;15.53;;;-0.10;99.90;;;;;;5011453;28;20604;-70
2023/01/23 07:27:13;;;;;;;23.67;16.00;;;-0.20;99.90;;;;;;5009277;28;20177;-71
2023/01/23 07:29:39;;;;;;;22.03;15.63;;;-0.10;99.90;;;;;;5010862;28;20197;-71
2023/01/23 07:32:04;;;;;;;22.57;16.23;;;0.00;99.90;;;;;;5012561;28;20189;-72
2023/01/23 07:34:30;;;;;;;21.87;15.37;;;0.00;99.90;;;;;;5006905;28;20200;-71
2023/01/23 07:36:56;;;;;;;23.13;16.33;;;0.00;99.90;;;;;;5015847;28;20237;-70
2023/01/23 07:39:21;;;;;;;21.40;15.20;;;0.10;99.90;;;;;;5026312;28;20609;-72
2023/01/23 07:41:47;;;;;;;24.00;15.90;;;0.20;99.90;;;;;;5023841;28;20176;-72
2023/01/23 07:44:18;;;;;;;21.27;15.47;;;0.30;99.90;;;;;;5012059;28;20649;-70
2023/01/23 07:46:44;;;;;;;23.53;15.27;;;0.50;99.90;;;;;;5023830;28;20168;-70
2023/01/23 07:49:10;;;;;;;23.03;15.57;;;0.60;99.90;;;;;;5016882;28;20823;-70
2023/01/23 07:51:36;;;;;;;24.77;16.10;;;0.60;99.90;;;;;;5017870;28;20254;-70
2023/01/23 07:54:02;;;;;;;23.20;16.50;;;0.70;99.90;;;;;;5024800;28;21033;-70
2023/01/23 07:56:27;;;;;;;21.83;14.90;;;0.70;99.90;;;;;;5027574;28;20181;-70
2023/01/23 07:58:53;;;;;;;21.73;15.53;;;0.90;99.90;;;;;;5012469;28;20652;-71
2023/01/23 08:01:18;;;;;;;23.77;15.93;;;0.90;99.90;;;;;;5013339;28;20204;-70
2023/01/23 08:03:47;;;;;;;22.37;15.23;;;0.80;99.90;;;;;;5011002;28;20692;-70
2023/01/23 08:06:13;;;;;;;20.40;14.83;;;0.90;99.90;;;;;;5008373;28;20222;-70
2023/01/23 08:08:39;;;;;;;19.48;14.35;;;1.00;99.90;;;;;;5010039;28;20188;-70
2023/01/23 08:11:06;;;;;;;20.92;14.43;;;1.00;99.90;;;;;;5012691;28;20644;-70
2023/01/23 08:13:32;;;;;;;19.47;13.83;;;1.10;99.90;;;;;;5016231;28;20363;-71
2023/01/23 08:15:58;;;;;;;20.77;14.23;;;1.30;99.90;;;;;;5011287;28;20212;-70
2023/01/23 08:18:25;;;;;;;20.35;14.27;;;1.50;99.90;;;;;;5015550;28;20679;-71
2023/01/23 08:20:54;;;;;;;22.40;15.27;;;1.60;99.90;;;;;;5012518;28;20533;-70
2023/01/23 08:23:24;;;;;;;20.50;14.45;;;1.80;99.90;;;;;;5021593;28;20564;-71
2023/01/23 08:25:58;;;;;;;19.67;14.35;;;1.90;99.90;;;;;;5016074;28;20177;-70
2023/01/23 08:28:24;;;;;;;18.55;14.38;;;2.00;99.90;;;;;;5013854;28;20649;-70
2023/01/23 08:30:50;;;;;;;20.23;14.07;;;2.20;99.90;;;;;;5014472;28;20589;-71
2023/01/23 08:33:17;;;;;;;19.55;13.60;;;2.30;99.90;;;;;;5017156;28;20193;-70
2023/01/23 08:35:54;;;;;;;20.75;14.93;;;2.40;99.90;;;;;;5022919;28;20170;-70
2023/01/23 08:38:21;;;;;;;19.38;14.07;;;2.50;99.90;;;;;;5017125;28;20247;-70
2023/01/23 08:40:48;;;;;;;22.25;14.30;;;2.50;99.90;;;;;;5011986;28;20686;-69
2023/01/23 08:43:14;;;;;;;21.45;14.88;;;2.40;99.90;;;;;;5014439;28;20232;-69
2023/01/23 08:45:41;;;;;;;19.77;13.85;;;2.30;99.90;;;;;;5012065;28;20189;-70
2023/01/23 08:48:07;;;;;;;20.75;14.77;;;2.30;99.90;;;;;;5019218;28;20653;-70
2023/01/23 08:50:33;;;;;;;21.23;15.05;;;2.40;99.90;;;;;;5023087;28;20223;-69
2023/01/23 08:52:59;;;;;;;20.17;13.65;;;2.50;99.90;;;;;;5012305;28;20281;-70
2023/01/23 08:55:26;;;;;;;21.92;14.55;;;2.70;99.90;;;;;;5016418;28;20731;-70
2023/01/23 08:57:52;;;;;;;18.98;13.68;;;2.90;99.90;;;;;;5019635;28;20757;-70
2023/01/23 09:00:19;;;;;;;21.98;15.23;;;3.10;99.90;;;;;;5016650;28;20173;-70
2023/01/23 09:02:44;;;;;;;20.77;14.15;;;3.20;99.90;;;;;;5015197;28;20196;-70
2023/01/23 09:05:10;;;;;;;18.52;13.00;;;3.30;99.90;;;;;;5015255;28;20213;-71
2023/01/23 09:07:36;;;;;;;20.40;13.73;;;3.50;99.90;;;;;;5010707;28;20169;-70
2023/01/23 09:10:04;;;;;;;18.42;13.88;;;3.60;99.90;;;;;;5020471;28;20551;-71
2023/01/23 09:12:31;;;;;;;20.95;15.88;;;3.70;99.90;;;;;;5012627;28;20185;-71
2023/01/23 09:14:57;;;;;;;20.35;13.60;;;3.80;99.90;;;;;;5013150;28;20280;-71
2023/01/23 09:17:22;;;;;;;18.80;14.50;;;3.90;99.90;;;;;;5018883;28;20588;-71
2023/01/23 09:19:48;;;;;;;17.50;13.18;;;4.00;99.90;;;;;;5014373;28;20177;-72
2023/01/23 09:22:14;;;;;;;18.00;13.50;;;4.00;99.90;;;;;;5008584;28;20602;-71
2023/01/23 09:24:40;;;;;;;17.73;12.38;;;4.00;99.90;;;;;;5013882;28;20217;-72
2023/01/23 09:27:06;;;;;;;19.48;14.43;;;4.20;99.90;;;;;;5015420;28;20193;-71
2023/01/23 09:29:31;;;;;;;18.75;14.18;;;4.20;99.90;;;;;;5014245;28;20201;-71
2023/01/23 09:31:57;;;;;;;17.75;12.20;;;4.20;99.90;;;;;;5015786;28;20334;-72
2023/01/23 09:34:23;;;;;;;17.35;13.15;;;4.10;99.90;;;;;;5016299;28;20200;-72
2023/01/23 09:36:48;;;;;;;18.63;13.45;;;4.00;99.90;;;;;;5022215;28;20181;-71
2023/01/23 09:39:14;;;;;;;18.48;12.45;;;4.00;99.90;;;;;;5024754;28;20238;-72
2023/01/23 09:41:42;;;;;;;18.95;13.65;;;4.00;99.90;;;;;;5028043;28;20196;-71
2023/01/23 09:44:37;;;;;;;18.25;13.50;;;4.10;99.90;;;;;;5015145;28;20904;-72
2023/01/23 09:47:34;;;;;;;17.98;13.32;;;4.20;99.90;;;;;;5015970;28;20177;-72
2023/01/23 09:50:06;;;;;;;18.33;13.35;;;4.10;99.90;;;;;;5020919;28;20635;-72
2023/01/23 09:52:38;;;;;;;18.42;13.98;;;4.20;99.90;;;;;;5023857;28;20187;-72
2023/01/23 09:55:23;;;;;;;20.20;13.30;;;4.30;99.90;;;;;;5009557;28;20557;-72
2023/01/23 09:57:55;;;;;;;17.90;13.38;;;4.40;99.90;;;;;;5013857;28;20173;-72
2023/01/23 10:00:29;;;;;;;17.20;13.63;;;4.60;99.90;;;;;;5011234;28;20172;-74
2023/01/23 10:02:56;;;;;;;18.45;13.55;;;4.60;99.90;;;;;;5022863;28;20268;-73
2023/01/23 10:05:45;;;;;;;15.25;11.27;;;4.60;99.90;;;;;;5015142;28;20201;-72
2023/01/23 10:08:38;;;;;;;15.57;12.15;;;4.90;99.90;;;;;;5009655;28;20182;-73
2023/01/23 10:11:41;;;;;;;14.90;11.63;;;5.10;99.90;;;;;;5016396;28;20185;-72
2023/01/23 10:14:38;;;;;;;15.55;12.35;;;5.60;99.90;;;;;;5022789;28;20223;-73
2023/01/23 10:17:21;;;;;;;14.77;12.23;;;6.00;99.90;;;;;;5018343;28;20701;-73
2023/01/23 10:20:01;;;;;;;13.77;11.13;;;6.20;99.90;;;;;;5012177;28;20198;-73
2023/01/23 10:22:32;;;;;;;15.77;11.23;;;6.20;99.90;;;;;;5010768;28;20590;-71
2023/01/23 10:24:59;;;;;;;14.82;11.48;;;6.10;99.90;;;;;;5013120;28;20243;-72
2023/01/23 10:27:42;;;;;;;16.63;11.93;;;6.00;99.90;;;;;;5011650;28;20181;-74
2023/01/23 10:30:18;;;;;;;15.60;12.05;;;6.10;99.90;;;;;;5010913;28;20201;-73
2023/01/23 10:32:48;;;;;;;13.63;11.20;;;6.40;99.90;;;;;;5012648;28;20196;-72
2023/01/23 10:35:33;;;;;;;15.80;11.90;;;6.90;99.90;;;;;;5012098;28;20730;-74
2023/01/23 10:38:16;;;;;;;14.02;12.05;;;7.80;99.90;;;;;;5017040;28;20199;-76
2023/01/23 10:43:26;;;;;;;16.13;12.70;;;8.80;99.90;;;;;;5014798;28;20303;-79
2023/01/23 10:45:52;;;;;;;13.25;11.32;;;9.00;99.90;;;;;;5013580;28;20178;-79
2023/01/23 10:48:40;;;;;;;12.30;10.65;;;8.70;99.90;;;;;;5021358;28;20231;-78
2023/01/23 10:51:37;;;;;;;14.20;11.32;;;8.40;99.90;;;;;;5012259;28;20185;-78
2023/01/23 10:54:05;;;;;;;11.93;10.60;;;8.20;99.90;;;;;;5007743;28;20319;-78
2023/01/23 10:56:33;;;;;;;14.82;11.55;;;8.20;99.90;;;;;;5022480;28;20176;-79
2023/01/23 10:59:04;;;;;;;13.55;11.70;;;8.60;99.90;;;;;;5027502;28;20200;-78
2023/01/23 11:01:35;;;;;;;14.65;11.73;;;8.70;99.90;;;;;;5014248;28;20372;-78
2023/01/23 11:04:18;;;;;;;13.40;10.75;;;8.80;99.90;;;;;;5018669;28;20213;-78
2023/01/23 11:07:04;;;;;;;13.27;11.05;;;8.70;99.90;;;;;;5012166;28;20664;-80
2023/01/23 11:09:31;;;;;;;13.25;10.93;;;9.20;99.90;;;;;;5011653;28;20197;-79
2023/01/23 11:12:01;;;;;;;12.10;9.82;;;9.00;99.90;;;;;;5014045;28;20243;-79
2023/01/23 11:14:26;;;;;;;11.43;9.15;;;8.60;99.90;;;;;;5016317;28;20189;-79
2023/01/23 11:17:12;;;;;;;13.23;10.30;;;8.10;99.90;;;;;;5014953;28;20647;-79
2023/01/23 11:19:37;;;;;;;12.85;10.43;;;7.70;99.90;;;;;;5010967;28;20181;-79
2023/01/23 11:22:04;;;;;;;11.23;10.00;;;7.40;99.90;;;;;;5011777;28;20182;-79
2023/01/23 11:24:31;;;;;;;13.07;11.30;;;7.00;99.90;;;;;;5016760;28;20193;-75
2023/01/23 11:27:23;;;;;;;12.35;11.00;;;6.80;99.90;;;;;;5010794;28;20276;-76
2023/01/23 11:30:07;;;;;;;12.48;9.65;;;6.80;99.90;;;;;;5027225;28;20204;-78
2023/01/23 11:32:55;;;;;;;12.68;9.70;;;6.90;99.90;;;;;;5021128;28;20177;-78
2023/01/23 11:35:48;;;;;;;12.95;10.27;;;6.90;99.90;;;;;;5016096;28;20189;-78
2023/01/23 11:38:18;;;;;;;12.18;9.18;;;6.60;99.90;;;;;;5023796;28;20682;-77
2023/01/23 11:40:43;;;;;;;12.68;9.75;;;6.40;99.90;;;;;;5017037;28;20172;-77
2023/01/23 11:43:14;;;;;;;12.65;10.55;;;6.30;99.90;;;;;;5017793;28;20192;-78
2023/01/23 11:45:57;;;;;;;10.98;9.15;;;6.00;99.90;;;;;;5014220;28;20185;-78
2023/01/23 11:48:28;;;;;;;11.50;9.70;;;6.30;99.90;;;;;;5007292;28;20184;-78
2023/01/23 11:51:14;;;;;;;11.48;9.52;;;8.00;99.90;;;;;;5015951;28;20259;-78
2023/01/23 11:53:50;;;;;;;13.77;11.25;;;8.80;99.90;;;;;;5019409;28;20212;-77
2023/01/23 11:56:31;;;;;;;11.98;9.82;;;8.90;99.90;;;;;;5015179;28;20179;-78
2023/01/23 11:59:08;;;;;;;11.45;10.30;;;8.70;99.90;;;;;;5018297;28;20258;-78
2023/01/23 12:01:49;;;;;;;13.05;10.45;;;8.20;99.90;;;;;;5023146;28;20556;-77
2023/01/23 12:04:38;;;;;;;11.13;9.93;;;7.80;99.90;;;;;;5010082;28;20204;-77
2023/01/23 12:07:16;;;;;;;10.43;9.32;;;7.30;99.90;;;;;;5027287;28;20195;-77
2023/01/23 12:10:20;;;;;;;12.75;9.52;;;7.10;99.90;;;;;;5017402;28;20205;-76
2023/01/23 12:12:46;;;;;;;11.88;9.25;;;6.80;99.90;;;;;;5018714;28;20672;-77
2023/01/23 12:15:26;;;;;;;11.23;10.00;;;6.70;99.90;;;;;;5016176;28;20234;-75
2023/01/23 12:18:08;;;;;;;11.13;9.63;;;6.70;99.90;;;;;;5018444;28;20259;-76
2023/01/23 12:20:56;;;;;;;10.80;9.70;;;6.40;99.90;;;;;;5015834;28;20181;-75
2023/01/23 12:23:33;;;;;;;12.23;10.65;;;6.30;99.90;;;;;;5018878;28;20221;-75
2023/01/23 12:26:10;;;;;;;11.48;9.63;;;6.30;99.90;;;;;;5020475;28;20245;-75
2023/01/23 12:28:42;;;;;;;12.52;9.57;;;6.50;99.90;;;;;;5011770;28;20184;-76
2023/01/23 12:31:20;;;;;;;11.85;9.80;;;6.90;99.90;;;;;;5023713;28;20198;-76
2023/01/23 12:34:25;;;;;;;11.57;9.48;;;7.30;99.90;;;;;;5013982;28;20208;-75
2023/01/23 12:36:58;;;;;;;11.32;9.30;;;7.50;99.90;;;;;;5025585;28;20264;-76
2023/01/23 12:39:51;;;;;;;10.60;9.23;;;7.40;99.90;;;;;;5029015;28;20180;-76
2023/01/23 12:42:24;;;;;;;10.82;8.98;;;7.50;99.90;;;;;;5024199;28;20620;-74
2023/01/23 12:44:55;;;;;;;12.05;10.20;;;7.80;99.90;;;;;;5016068;28;20196;-75
2023/01/23 12:48:06;;;;;;;10.90;9.80;;;7.80;99.90;;;;;;5022982;28;20673;-75
2023/01/23 12:50:44;;;;;;;12.10;9.90;;;7.80;99.90;;;;;;5021495;28;20681;-75
2023/01/23 12:53:23;;;;;;;10.30;8.88;;;8.00;99.90;;;;;;5024118;28;20524;-74
2023/01/23 12:55:52;;;;;;;11.45;9.65;;;8.30;99.90;;;;;;5023924;28;20177;-74